Terminal Aerodrome Forecast
Issued by NWS Melbourne, FL

Home | Current Version | Previous Version | Text Only | Print | Product List | Glossary On
Versions: 1 2 3 4 5 6 7 8 9 10 11 12 13 14 15 16 17 18 19 20 21 22 23 24 25 26 27 28 29 30 31 32 33 34 35 36 37 38 39 40 41 42 43 44 45 46 47 48 49 50
000
FTUS42 KMLB 210528
TAFMCO
TAF
KMCO 210528Z 2106/2212 02005KT P6SM OVC040
     FM210900 32006KT P6SM BKN040 BKN080
     FM211500 30007KT P6SM SCT035
     FM211800 28010KT P6SM FEW035
     FM220000 27008KT P6SM SKC
     FM220600 30005KT P6SM SKC=

USA.gov is the U.S. government's official web portal to all federal, state and local government web resources and services.